• Join FlightAware (Why Join?)
  • Login
  • US Flag 
06:30AM EDT


 

Airport Tracker/Info


-or-


 

Live Flight TrackerFlight Track Log ✈ SWA771 ✈ 04-May-2013 ✈ KBWI - KORF

Flight Track Log - Related Links

Times and Time Zones

All times are in EDT time to prevent confusion due to time zone crossing. See the SWA771 flight status page for this flight to view local times or setup timezone preferences in your user account.

Time Position Orientation Groundspeed Altitude Reporting Facility
EDT Latitude Longitude Course Direction KTS MPH feet Rate Location/Type
12:35PM 39.1500 -76.6500 184° South 157 181 1,700  Level Potomac TRACON
12:36PM 39.1000 -76.6167 153° Southeast 205 236 3,700 2,280 Climbing Potomac TRACON
12:37PM 39.0500 -76.5667 142° Southeast 255 293 6,300 3,420 Climbing Potomac TRACON
12:38PM 38.9667 -76.5000 148° Southeast 278 320 11,000 2,280 Climbing Potomac TRACON
12:41PM 38.7821 -76.6968 184° South  Level FlightAware Approximate
12:41PM 38.7953 -76.5106 183° South 286 329 14,000  Level Washington Center
12:42PM 38.7239 -76.5736 215° Southwest 308 354 14,000  Level Washington Center
12:43PM 38.6461 -76.6442 215° Southwest 332 382 14,000  Level Washington Center
12:44PM 38.5683 -76.7175 216° Southwest 352 405 14,000  Level Washington Center
12:45PM 38.4744 -76.7214 182° South 335 386 14,000  Level Washington Center
12:46PM 38.3806 -76.7094 174° South 328 377 14,000  Level Washington Center
12:47PM 38.2786 -76.6867 170° South 334 384 14,000  Level Washington Center
12:48PM 38.1850 -76.6747 174° South 334 384 14,000  Level Washington Center
12:49PM 38.0914 -76.6631 174° South 339 390 14,000  Level Washington Center
12:50PM 37.9933 -76.6694 183° South 339 390 14,000  Level Washington Center
12:51PM 37.8972 -76.6786 184° South 345 397 14,000  Level Washington Center
12:52PM 37.8225 -76.6486 162° South 335 386 14,000  Level Washington Center
12:53PM 37.7522 -76.5558 134° Southeast 332 382 14,000 -420 Level Washington Center
12:54PM 37.6925 -76.4708 132° Southeast 323 372 13,200 -1,320 Descending Washington Center
12:55PM 37.6367 -76.3917 132° Southeast 305 351 11,400 -1,440 Descending Washington Center
12:56PM 37.5744 -76.3256 140° Southeast 294 338 10,300 -1,080 Descending Washington Center
12:57PM 37.4953 -76.3039 168° South 278 320 9,300 -1,080 Descending Washington Center
12:58PM 37.4161 -76.2953 175° South 282 325 8,200 -1,020 Descending Washington Center
12:59PM 37.3411 -76.2789 170° South 283 326 7,300 -960 Descending Washington Center
01:00PM 37.2661 -76.2650 172° South 283 326 6,300 -1,020 Descending Washington Center
01:01PM 37.1931 -76.2514 172° South 272 313 5,300 -660 Descending Washington Center
01:02PM 37.1078 -76.2403 174° South 258 297 5,000 -180 Descending Washington Center
01:03PM 37.0347 -76.2267 172° South 263 303 5,000  Level Washington Center
01:04PM 36.9597 -76.2183 175° South 265 305 5,000  Level Washington Center
01:05PM 36.9008 -76.2803 220° Southwest 285 328 5,000  Level Washington Center
01:06PM 36.8442 -76.3444 222° Southwest 248 285 5,000 -420 Level Washington Center
01:07PM 36.8064 -76.3936 226° Southwest 228 262 4,300 -1,140 Descending Washington Center
01:08PM 36.7606 -76.3853 172° South 183 211 2,900 -1,380 Descending Washington Center
01:09PM 36.7650 -76.3308 84° East 151 174 1,600 -660 Descending Washington Center
01:10PM 36.7944 -76.3000 40° Northeast 141 162 1,600  Level Washington Center
01:11PM 36.8258 -76.2692 38° Northeast 145 167 1,600 -360 Level Washington Center
01:12PM 36.8553 -76.2408 38° Northeast 122 140 900 -720 Descending Washington Center